createdAt,value
2019-05-22T00:02:04.642Z,34.83
2019-05-22T00:04:48.049Z,31.10
2019-05-22T00:07:17.434Z,34.43
2019-05-22T00:09:49.838Z,29.60
2019-05-22T00:12:20.619Z,28.33
2019-05-22T00:14:52.735Z,28.77
2019-05-22T00:17:30.346Z,30.80
2019-05-22T00:20:00.605Z,25.83
2019-05-22T00:22:31.755Z,24.60
2019-05-22T00:25:02.099Z,24.93
2019-05-22T00:27:32.347Z,23.77
2019-05-22T00:30:02.773Z,29.30
2019-05-22T00:32:33.474Z,25.87
2019-05-22T00:35:02.672Z,23.67
2019-05-22T00:37:32.289Z,24.00
2019-05-22T00:40:03.031Z,22.37
2019-05-22T00:42:34.089Z,24.50
2019-05-22T00:45:04.800Z,20.83
2019-05-22T00:47:36.143Z,23.77
2019-05-22T00:50:08.443Z,24.53
2019-05-22T00:52:48.244Z,25.80
2019-05-22T00:55:31.402Z,26.53
2019-05-22T00:58:05.322Z,22.37
2019-05-22T01:00:39.946Z,25.23
2019-05-22T01:03:14.438Z,24.57
2019-05-22T01:05:44.078Z,24.60
2019-05-22T01:08:15.899Z,20.93
2019-05-22T01:10:47.503Z,21.00
2019-05-22T01:13:18.122Z,21.00
2019-05-22T01:15:48.578Z,19.33
2019-05-22T01:18:18.876Z,21.10
2019-05-22T01:20:49.483Z,18.30
2019-05-22T01:23:21.386Z,19.50
2019-05-22T01:25:52.176Z,16.47
2019-05-22T01:28:24.037Z,16.07
2019-05-22T01:31:00.726Z,16.60
2019-05-22T01:33:39.250Z,18.53
2019-05-22T01:36:19.532Z,19.00
2019-05-22T01:38:49.279Z,16.77
2019-05-22T01:41:25.359Z,22.17
2019-05-22T01:43:55.879Z,17.90
2019-05-22T01:46:25.835Z,18.77
2019-05-22T01:48:59.622Z,16.60
2019-05-22T01:51:28.819Z,17.10
2019-05-22T01:53:57.752Z,17.50
2019-05-22T01:56:27.155Z,20.90
2019-05-22T01:58:58.000Z,17.87
2019-05-22T02:01:27.867Z,15.83
2019-05-22T02:03:59.082Z,18.07
2019-05-22T02:06:28.382Z,15.17
2019-05-22T02:09:28.672Z,16.10
2019-05-22T02:12:10.132Z,13.53
2019-05-22T02:14:48.227Z,15.03
2019-05-22T02:17:20.060Z,18.33
2019-05-22T02:19:50.226Z,15.20
2019-05-22T02:22:20.017Z,15.53
2019-05-22T02:24:51.976Z,15.57
2019-05-22T02:27:22.229Z,13.97
2019-05-22T02:29:54.861Z,13.53
2019-05-22T02:32:25.917Z,10.83
2019-05-22T02:34:56.787Z,13.00
2019-05-22T02:37:27.296Z,9.30
2019-05-22T02:39:57.409Z,9.50
2019-05-22T02:42:29.755Z,10.03
2019-05-22T02:44:59.839Z,11.20
2019-05-22T02:47:29.544Z,8.57
2019-05-22T02:50:00.340Z,7.90
2019-05-22T02:52:29.747Z,8.30
2019-05-22T02:54:58.829Z,7.50
2019-05-22T02:57:30.446Z,6.30
2019-05-22T03:00:00.686Z,6.80
2019-05-22T03:02:32.452Z,6.53
2019-05-22T03:05:07.132Z,6.23
2019-05-22T03:07:36.731Z,6.60
2019-05-22T03:10:08.004Z,9.23
2019-05-22T03:12:38.700Z,7.13
2019-05-22T03:15:14.886Z,7.23
2019-05-22T03:17:45.000Z,7.70
2019-05-22T03:20:20.908Z,5.40
2019-05-22T03:23:31.125Z,5.93
2019-05-22T03:26:01.822Z,5.03
2019-05-22T03:28:31.795Z,6.27
2019-05-22T03:31:00.842Z,6.17
2019-05-22T03:33:30.567Z,5.57
2019-05-22T03:36:07.814Z,5.60
2019-05-22T03:38:39.961Z,6.10
2019-05-22T03:41:10.911Z,7.27
2019-05-22T03:43:41.894Z,7.63
2019-05-22T03:46:32.271Z,7.73
2019-05-22T03:49:01.626Z,7.03
2019-05-22T03:51:31.354Z,6.10
2019-05-22T03:54:02.020Z,6.93
2019-05-22T03:56:32.739Z,6.47
2019-05-22T03:59:02.459Z,6.47
2019-05-22T04:01:33.199Z,5.93
2019-05-22T04:04:06.355Z,7.03
2019-05-22T04:06:36.998Z,7.17
2019-05-22T04:09:22.531Z,8.07
2019-05-22T04:11:52.530Z,6.37
2019-05-22T04:14:24.557Z,6.57
2019-05-22T04:16:54.356Z,10.37
2019-05-22T04:19:24.270Z,8.17
2019-05-22T04:22:00.753Z,8.50
2019-05-22T04:24:31.321Z,9.77
2019-05-22T04:27:03.281Z,9.53
2019-05-22T04:29:32.740Z,8.63
2019-05-22T04:32:27.425Z,8.20
2019-05-22T04:34:57.269Z,11.57
2019-05-22T04:37:26.586Z,8.77
2019-05-22T04:40:16.462Z,9.33
2019-05-22T04:42:45.703Z,10.20
2019-05-22T04:45:15.911Z,8.90
2019-05-22T04:47:57.480Z,7.70
2019-05-22T04:50:27.441Z,8.37
2019-05-22T04:52:56.741Z,9.00
2019-05-22T04:55:26.960Z,8.87
2019-05-22T04:57:57.646Z,8.67
2019-05-22T05:00:29.583Z,6.47
2019-05-22T05:02:59.211Z,7.43
2019-05-22T05:05:32.066Z,10.00
2019-05-22T05:08:01.993Z,9.57
2019-05-22T05:10:31.803Z,8.93
2019-05-22T05:13:01.209Z,7.97
2019-05-22T05:15:30.333Z,8.53
2019-05-22T05:17:59.229Z,6.30
2019-05-22T05:20:28.397Z,7.63
2019-05-22T05:22:57.361Z,8.30
2019-05-22T05:25:26.624Z,6.63
2019-05-22T05:27:56.065Z,7.00
2019-05-22T05:30:27.433Z,8.53
2019-05-22T05:32:56.555Z,7.57
2019-05-22T05:35:26.117Z,8.63
2019-05-22T05:37:55.462Z,7.03
2019-05-22T05:40:36.348Z,10.73
2019-05-22T05:43:06.838Z,8.10
2019-05-22T05:45:36.525Z,10.97
2019-05-22T05:48:08.182Z,7.13
2019-05-22T05:50:40.061Z,5.47
2019-05-22T05:53:16.422Z,12.37
2019-05-22T05:56:04.666Z,5.30
2019-05-22T05:58:34.551Z,5.60
2019-05-22T06:01:13.243Z,8.23
2019-05-22T06:03:43.314Z,5.57
2019-05-22T06:06:54.957Z,4.97
2019-05-22T06:09:25.938Z,5.30
2019-05-22T06:11:57.033Z,4.60
2019-05-22T06:14:29.162Z,9.00
2019-05-22T06:17:57.890Z,6.30
2019-05-22T06:20:28.682Z,9.47
2019-05-22T06:23:46.252Z,5.40
2019-05-22T06:26:33.686Z,6.47
2019-05-22T06:29:03.840Z,7.87
2019-05-22T06:31:47.603Z,9.00
2019-05-22T06:34:17.102Z,7.73
2019-05-22T06:36:46.743Z,7.47
2019-05-22T06:39:17.127Z,5.80
2019-05-22T06:41:48.242Z,8.43
2019-05-22T06:44:36.121Z,6.87
2019-05-22T06:47:08.257Z,9.13
2019-05-22T06:49:58.002Z,8.27
2019-05-22T06:52:27.136Z,8.90
2019-05-22T06:54:56.867Z,11.20
2019-05-22T06:57:35.959Z,7.17
2019-05-22T07:00:19.977Z,8.13
2019-05-22T07:02:49.596Z,7.43
2019-05-22T07:05:18.744Z,11.07
2019-05-22T07:07:49.049Z,6.00
2019-05-22T07:10:19.454Z,7.23
2019-05-22T07:12:51.025Z,7.73
2019-05-22T07:15:45.609Z,9.93
2019-05-22T07:18:17.902Z,7.87
2019-05-22T07:20:48.390Z,8.23
2019-05-22T07:23:22.728Z,6.13
2019-05-22T07:25:52.956Z,8.23
2019-05-22T07:28:25.567Z,8.70
2019-05-22T07:30:55.203Z,7.13
2019-05-22T07:33:24.354Z,5.80
2019-05-22T07:36:12.115Z,7.10
2019-05-22T07:38:24.543Z,9.60
2019-05-22T07:40:53.895Z,6.97
2019-05-22T07:43:23.664Z,7.17
2019-05-22T07:45:55.041Z,7.20
2019-05-22T07:48:26.532Z,12.17
2019-05-22T07:50:58.092Z,6.33
2019-05-22T07:53:29.661Z,5.20
2019-05-22T07:56:02.418Z,6.80
2019-05-22T07:58:32.076Z,8.07
2019-05-22T08:01:03.713Z,6.00
2019-05-22T08:03:33.032Z,4.80
2019-05-22T08:06:02.784Z,5.57
2019-05-22T08:08:35.364Z,5.17
2019-05-22T08:11:06.394Z,8.70
2019-05-22T08:13:35.998Z,6.73
2019-05-22T08:16:05.649Z,5.73
2019-05-22T08:18:37.299Z,6.10
2019-05-22T08:21:06.813Z,9.20
2019-05-22T08:23:36.404Z,6.83
2019-05-22T08:26:06.777Z,6.33
2019-05-22T08:28:37.845Z,8.33
2019-05-22T08:31:09.066Z,7.43
2019-05-22T08:33:39.257Z,8.23
2019-05-22T08:36:09.390Z,6.80
2019-05-22T08:38:38.779Z,6.50
2019-05-22T08:41:09.752Z,6.73
2019-05-22T08:44:03.314Z,10.87
2019-05-22T08:46:12.412Z,5.97
2019-05-22T08:48:47.857Z,5.33
2019-05-22T08:51:14.853Z,4.37
2019-05-22T08:53:48.099Z,5.37
2019-05-22T08:56:15.276Z,6.73
2019-05-22T08:58:45.018Z,5.30
2019-05-22T09:01:15.158Z,6.47
2019-05-22T09:03:44.750Z,4.40
2019-05-22T09:06:13.969Z,6.20
2019-05-22T09:08:43.206Z,5.73
2019-05-22T09:11:12.861Z,8.77
2019-05-22T09:13:42.194Z,6.73
2019-05-22T09:16:12.010Z,7.17
2019-05-22T09:18:41.085Z,6.00
2019-05-22T09:21:10.618Z,6.33
2019-05-22T09:23:40.971Z,6.73
2019-05-22T09:26:10.875Z,7.93
2019-05-22T09:28:40.381Z,6.30
2019-05-22T09:31:09.699Z,7.97
2019-05-22T09:33:39.433Z,7.23
2019-05-22T09:36:10.341Z,5.77
2019-05-22T09:38:39.395Z,4.50
2019-05-22T09:41:09.025Z,4.87
2019-05-22T09:43:38.528Z,4.60
2019-05-22T09:46:08.199Z,4.33
2019-05-22T09:48:37.271Z,6.53
2019-05-22T09:51:06.370Z,7.37
2019-05-22T09:53:36.258Z,4.73
2019-05-22T09:56:05.602Z,7.43
2019-05-22T09:58:34.954Z,6.37
2019-05-22T10:01:05.214Z,6.10
2019-05-22T10:03:34.846Z,3.73
2019-05-22T10:06:04.676Z,4.70
2019-05-22T10:08:33.797Z,3.60
2019-05-22T10:11:02.977Z,4.10
2019-05-22T10:13:32.860Z,3.70
2019-05-22T10:16:02.448Z,3.87
2019-05-22T10:18:32.191Z,5.70
2019-05-22T10:21:01.244Z,4.53
2019-05-22T10:23:31.921Z,4.77
2019-05-22T10:26:01.051Z,5.27
2019-05-22T10:28:30.291Z,4.90
2019-05-22T10:30:59.872Z,4.40
2019-05-22T10:33:29.663Z,5.07
2019-05-22T10:35:59.884Z,4.47
2019-05-22T10:38:28.965Z,4.80
2019-05-22T10:40:59.524Z,5.37
2019-05-22T10:43:29.693Z,4.47
2019-05-22T10:45:59.217Z,7.30
2019-05-22T10:48:28.566Z,4.43
2019-05-22T10:50:57.704Z,4.33
2019-05-22T10:53:33.509Z,5.87
2019-05-22T10:55:58.288Z,4.73
2019-05-22T10:58:27.370Z,4.50
2019-05-22T11:00:56.880Z,4.70
2019-05-22T11:03:26.191Z,4.37
2019-05-22T11:06:06.550Z,8.07
2019-05-22T11:08:31.767Z,4.60
2019-05-22T11:10:58.266Z,4.53
2019-05-22T11:13:27.765Z,5.03
2019-05-22T11:15:58.353Z,4.90
2019-05-22T11:18:28.000Z,4.77
2019-05-22T11:20:57.146Z,4.60
2019-05-22T11:23:26.282Z,4.70
2019-05-22T11:25:55.378Z,4.43
2019-05-22T11:28:25.167Z,4.20
2019-05-22T11:30:54.378Z,4.57
2019-05-22T11:33:23.621Z,6.10
2019-05-22T11:35:53.274Z,3.70
2019-05-22T11:38:22.833Z,3.97
2019-05-22T11:40:51.940Z,4.40
2019-05-22T11:43:21.394Z,5.37
2019-05-22T11:45:50.894Z,3.87
2019-05-22T11:48:20.961Z,4.60
2019-05-22T11:50:50.609Z,3.67
2019-05-22T11:53:19.945Z,4.03
2019-05-22T11:55:49.154Z,3.87
2019-05-22T11:58:18.324Z,3.80
2019-05-22T12:00:47.895Z,3.83
2019-05-22T12:03:17.505Z,4.47
2019-05-22T12:05:46.409Z,3.07
2019-05-22T12:08:15.721Z,3.40
2019-05-22T12:10:45.257Z,4.03
2019-05-22T12:13:14.475Z,2.90
2019-05-22T12:15:43.419Z,3.00
2019-05-22T12:18:13.159Z,4.23
2019-05-22T12:20:42.735Z,2.97
2019-05-22T12:23:12.606Z,5.70
2019-05-22T12:25:41.678Z,5.83
2019-05-22T12:28:10.825Z,4.60
2019-05-22T12:30:40.153Z,2.50
2019-05-22T12:33:38.885Z,3.40
2019-05-22T12:36:12.033Z,3.37
2019-05-22T12:38:42.205Z,3.27
2019-05-22T12:41:13.021Z,2.97
2019-05-22T12:43:44.779Z,8.30
2019-05-22T12:46:14.181Z,3.50
2019-05-22T12:48:44.710Z,4.00
2019-05-22T12:51:14.765Z,8.53
2019-05-22T12:53:43.870Z,3.57
2019-05-22T12:56:13.909Z,2.90
2019-05-22T12:58:43.608Z,3.83
2019-05-22T13:01:13.066Z,3.77
2019-05-22T13:03:42.662Z,4.53
2019-05-22T13:06:12.766Z,3.20
2019-05-22T13:08:42.563Z,5.40
2019-05-22T13:11:11.952Z,4.47
2019-05-22T13:13:41.998Z,3.57
2019-05-22T13:16:11.914Z,3.37
2019-05-22T13:18:42.187Z,4.30
2019-05-22T13:21:13.146Z,3.77
2019-05-22T13:23:44.582Z,3.00
2019-05-22T13:26:14.006Z,3.53
2019-05-22T13:28:45.943Z,3.37
2019-05-22T13:31:15.727Z,3.07
2019-05-22T13:33:45.370Z,4.23
2019-05-22T13:36:15.602Z,3.73
2019-05-22T13:38:45.042Z,5.90
2019-05-22T13:41:14.062Z,5.30
2019-05-22T13:43:43.192Z,3.80
2019-05-22T13:46:12.207Z,3.33
2019-05-22T13:48:41.299Z,3.37
2019-05-22T13:51:12.982Z,4.10
2019-05-22T13:53:42.467Z,5.13
2019-05-22T13:56:12.216Z,3.10
2019-05-22T13:58:42.512Z,5.00
2019-05-22T14:01:11.688Z,7.87
2019-05-22T14:03:41.143Z,3.27
2019-05-22T14:06:10.628Z,7.70
2019-05-22T14:08:39.858Z,3.23
2019-05-22T14:11:10.099Z,3.00
2019-05-22T14:13:39.739Z,5.87
2019-05-22T14:16:09.661Z,3.33
2019-05-22T14:18:38.695Z,3.40
2019-05-22T14:21:08.109Z,3.27
2019-05-22T14:23:37.259Z,5.83
2019-05-22T14:26:06.600Z,5.00
2019-05-22T14:28:36.992Z,3.23
2019-05-22T14:31:06.052Z,3.53
2019-05-22T14:33:40.129Z,4.07
2019-05-22T14:36:06.814Z,4.90
2019-05-22T14:38:36.432Z,8.67
2019-05-22T14:41:05.851Z,3.87
2019-05-22T14:43:34.964Z,4.13
2019-05-22T14:46:04.768Z,3.40
2019-05-22T14:48:34.541Z,4.07
2019-05-22T14:51:03.707Z,3.90
2019-05-22T14:53:33.605Z,5.83
2019-05-22T14:56:03.543Z,3.50
2019-05-22T14:58:32.652Z,4.73
2019-05-22T15:01:02.752Z,3.80
2019-05-22T15:03:32.845Z,4.27
2019-05-22T15:06:01.866Z,3.83
2019-05-22T15:08:33.601Z,3.80
2019-05-22T15:11:02.929Z,3.93
2019-05-22T15:13:32.640Z,11.63
2019-05-22T15:16:01.806Z,3.73
2019-05-22T15:18:30.873Z,6.47
2019-05-22T15:21:01.379Z,4.03
2019-05-22T15:23:32.401Z,3.57
2019-05-22T15:26:02.384Z,3.60
2019-05-22T15:28:32.037Z,4.60
2019-05-22T15:31:02.742Z,4.77
2019-05-22T15:33:32.877Z,3.43
2019-05-22T15:36:06.486Z,3.20
2019-05-22T15:38:35.085Z,4.80
2019-05-22T15:41:05.222Z,3.97
2019-05-22T15:43:34.680Z,3.03
2019-05-22T15:46:07.264Z,3.00
2019-05-22T15:48:36.697Z,4.00
2019-05-22T15:51:08.213Z,6.60
2019-05-22T15:53:40.506Z,3.40
2019-05-22T15:56:10.894Z,5.50
2019-05-22T15:58:48.810Z,3.40
2019-05-22T16:01:21.725Z,3.50
2019-05-22T16:03:51.860Z,4.17
2019-05-22T16:06:23.414Z,3.30
2019-05-22T16:08:53.878Z,3.60
2019-05-22T16:11:25.714Z,3.93
2019-05-22T16:13:56.783Z,4.03
2019-05-22T16:16:26.871Z,4.13
2019-05-22T16:18:59.934Z,4.20
2019-05-22T16:21:29.230Z,4.13
2019-05-22T16:23:59.171Z,4.30
2019-05-22T16:26:29.782Z,6.37
2019-05-22T16:29:00.575Z,4.87
2019-05-22T16:31:31.214Z,4.60
2019-05-22T16:34:00.626Z,4.07
2019-05-22T16:36:30.864Z,4.17
2019-05-22T16:39:00.940Z,4.30
2019-05-22T16:41:31.804Z,4.47
2019-05-22T16:44:01.209Z,4.10
2019-05-22T16:46:30.911Z,4.70
2019-05-22T16:49:00.128Z,4.90
2019-05-22T16:51:30.509Z,5.67
2019-05-22T16:54:06.223Z,5.13
2019-05-22T16:56:36.623Z,5.10
2019-05-22T16:59:07.307Z,5.80
2019-05-22T17:01:56.752Z,4.93
2019-05-22T17:04:08.198Z,5.27
2019-05-22T17:06:38.650Z,6.13
2019-05-22T17:09:11.360Z,5.37
2019-05-22T17:11:41.407Z,8.03
2019-05-22T17:14:13.043Z,5.70
2019-05-22T17:16:43.168Z,5.77
2019-05-22T17:19:26.262Z,5.23
2019-05-22T17:21:44.651Z,5.60
2019-05-22T17:24:15.078Z,7.53
2019-05-22T17:26:44.647Z,6.10
2019-05-22T17:29:14.972Z,7.20
2019-05-22T17:31:44.447Z,6.13
2019-05-22T17:34:32.143Z,6.27
2019-05-22T17:37:14.246Z,6.53
2019-05-22T17:39:48.844Z,7.60
2019-05-22T17:42:21.268Z,6.87
2019-05-22T17:44:54.180Z,7.67
2019-05-22T17:47:26.138Z,7.83
2019-05-22T17:49:55.966Z,8.07
2019-05-22T17:52:26.118Z,7.40
2019-05-22T17:54:55.893Z,7.80
2019-05-22T17:57:25.299Z,7.83
2019-05-22T17:59:55.648Z,7.87
2019-05-22T18:02:29.015Z,8.43
2019-05-22T18:04:58.255Z,8.53
2019-05-22T18:07:27.363Z,8.33
2019-05-22T18:09:56.531Z,8.53
2019-05-22T18:12:27.563Z,8.83
2019-05-22T18:14:56.767Z,9.47
2019-05-22T18:17:26.573Z,8.87
2019-05-22T18:19:55.769Z,9.43
2019-05-22T18:22:24.801Z,10.57
2019-05-22T18:24:53.784Z,9.83
2019-05-22T18:27:25.263Z,11.23
2019-05-22T18:29:53.593Z,9.60
2019-05-22T18:32:22.907Z,10.50
2019-05-22T18:34:51.948Z,9.93
2019-05-22T18:37:21.008Z,10.30
2019-05-22T18:39:50.266Z,10.83
2019-05-22T18:42:20.894Z,10.20
2019-05-22T18:44:50.200Z,10.87
2019-05-22T18:47:19.291Z,10.90
2019-05-22T18:49:48.343Z,10.70
2019-05-22T18:52:18.248Z,11.27
2019-05-22T18:54:49.829Z,14.00
2019-05-22T18:57:19.264Z,11.83
2019-05-22T18:59:48.366Z,12.47
2019-05-22T19:02:17.497Z,12.50
2019-05-22T19:04:46.781Z,11.20
2019-05-22T19:07:16.131Z,13.23
2019-05-22T19:09:45.261Z,11.87
2019-05-22T19:12:14.945Z,12.20
2019-05-22T19:14:44.809Z,13.47
2019-05-22T19:17:14.399Z,12.30
2019-05-22T19:19:43.624Z,12.43
2019-05-22T19:22:12.954Z,12.53
2019-05-22T19:24:42.257Z,13.90
2019-05-22T19:27:11.299Z,14.77
2019-05-22T19:29:40.361Z,13.70
2019-05-22T19:32:09.578Z,12.77
2019-05-22T19:34:38.966Z,13.40
2019-05-22T19:37:08.325Z,13.93
2019-05-22T19:39:38.165Z,14.37
2019-05-22T19:42:07.613Z,14.40
2019-05-22T19:44:36.658Z,14.63
2019-05-22T19:47:06.944Z,15.33
2019-05-22T19:49:36.346Z,15.87
2019-05-22T19:52:06.344Z,15.87
2019-05-22T19:54:36.586Z,16.07
2019-05-22T19:57:05.646Z,16.97
2019-05-22T19:59:35.098Z,16.57
2019-05-22T20:02:05.479Z,16.67
2019-05-22T20:04:35.066Z,16.90
2019-05-22T20:07:04.383Z,16.30
2019-05-22T20:09:33.582Z,16.23
2019-05-22T20:12:03.414Z,16.00
2019-05-22T20:14:32.680Z,16.03
2019-05-22T20:17:04.452Z,16.67
2019-05-22T20:19:33.551Z,14.80
2019-05-22T20:22:04.328Z,15.13
2019-05-22T20:24:33.550Z,14.97
2019-05-22T20:27:03.267Z,14.80
2019-05-22T20:29:32.607Z,14.33
2019-05-22T20:32:01.668Z,14.03
2019-05-22T20:34:30.763Z,14.47
2019-05-22T20:36:59.799Z,14.37
2019-05-22T20:39:29.855Z,13.83
2019-05-22T20:41:59.269Z,13.77
2019-05-22T20:44:29.715Z,12.73
2019-05-22T20:46:58.746Z,13.23
2019-05-22T20:49:29.006Z,13.60
2019-05-22T20:51:57.928Z,13.80
2019-05-22T20:54:28.391Z,12.20
2019-05-22T20:56:59.195Z,11.97
2019-05-22T20:59:30.059Z,14.47
2019-05-22T21:01:59.631Z,11.63
2019-05-22T21:04:29.280Z,12.83
2019-05-22T21:07:02.267Z,12.00
2019-05-22T21:09:32.392Z,13.43
2019-05-22T21:12:02.388Z,11.73
2019-05-22T21:14:31.828Z,11.57
2019-05-22T21:17:03.077Z,13.60
2019-05-22T21:19:32.166Z,11.33
2019-05-22T21:22:01.304Z,13.33
2019-05-22T21:24:31.212Z,11.10
2019-05-22T21:27:00.492Z,14.63
2019-05-22T21:29:29.764Z,11.00
2019-05-22T21:31:59.684Z,11.53
2019-05-22T21:34:29.749Z,11.23
2019-05-22T21:36:59.519Z,10.80
2019-05-22T21:39:29.532Z,11.20
2019-05-22T21:41:58.770Z,11.53
2019-05-22T21:44:28.296Z,10.50
2019-05-22T21:46:57.900Z,10.40
2019-05-22T21:49:29.399Z,11.77
2019-05-22T21:51:59.593Z,11.40
2019-05-22T21:54:30.226Z,11.77
2019-05-22T21:57:00.448Z,9.30
2019-05-22T21:59:29.443Z,10.60
2019-05-22T22:02:17.963Z,10.17
2019-05-22T22:04:47.885Z,11.07
2019-05-22T22:07:18.113Z,11.30
2019-05-22T22:09:47.885Z,10.13
2019-05-22T22:12:20.549Z,10.23
2019-05-22T22:14:51.232Z,10.00
2019-05-22T22:17:20.882Z,9.00
2019-05-22T22:19:50.179Z,10.27
2019-05-22T22:22:26.853Z,12.97
2019-05-22T22:24:56.383Z,9.27
2019-05-22T22:27:25.953Z,10.00
2019-05-22T22:29:55.557Z,9.00
2019-05-22T22:32:26.821Z,9.80
2019-05-22T22:34:56.209Z,9.00
2019-05-22T22:37:26.290Z,9.13
2019-05-22T22:39:57.198Z,9.53
2019-05-22T22:42:29.048Z,8.47
2019-05-22T22:44:59.171Z,8.67
2019-05-22T22:47:47.394Z,8.07
2019-05-22T22:50:19.274Z,9.17
2019-05-22T22:52:49.009Z,8.90
2019-05-22T22:55:19.031Z,8.17
2019-05-22T22:57:49.580Z,8.77
2019-05-22T23:00:25.406Z,8.30
2019-05-22T23:02:55.678Z,10.63
2019-05-22T23:05:24.821Z,8.47
2019-05-22T23:07:54.713Z,8.20
2019-05-22T23:10:24.676Z,8.93
2019-05-22T23:12:55.606Z,8.57
2019-05-22T23:15:26.427Z,9.07
2019-05-22T23:17:56.074Z,8.90
2019-05-22T23:20:23.598Z,8.50
2019-05-22T23:22:52.400Z,8.10
2019-05-22T23:25:21.378Z,8.13
2019-05-22T23:27:50.741Z,8.50
2019-05-22T23:30:21.338Z,9.00
2019-05-22T23:32:50.993Z,10.00
2019-05-22T23:35:21.070Z,8.40
2019-05-22T23:37:51.706Z,8.70
2019-05-22T23:40:26.687Z,8.37
2019-05-22T23:42:56.771Z,8.93
2019-05-22T23:45:26.315Z,8.57
2019-05-22T23:48:06.397Z,9.07
2019-05-22T23:50:38.246Z,9.47
2019-05-22T23:53:08.829Z,8.00
2019-05-22T23:55:38.768Z,8.53
2019-05-22T23:58:09.827Z,11.03
